Stephen Scott — WCW8842 — position and weather

sailwx.info

Track history (hours):
 
Tides and Currents Weather Stations Pressure Air Temp Water Temp Dewpoint Dewpoint Depression Visibility Wind Speed Wind Dir Waves Ship Positions

Stephen Scott

Owner: H A REINAUER INC, STATEN ISLAND, NY. More information available from US FCC via Universal Licensing System and Coast Guard Vessel Documentation Center.

Last reported at 2015-Aug-04 04:33 UTC. Time now 2015-Aug-04 05:19 UTC.
Position N 38°57' W 075°06'.

Length 30 m; draft 2.5 m.

Type: Towing. MMSI: 366245490.

Date/timePositionNaut miles runAvg speedWind from/ knotsBaromVisibWave heightAir tempDewpointWater temp
2015-Aug-04 04:33N 38°57' W 075°06'9 7.0
2015-Aug-04 03:20N 39°05' W 075°11'5 6.4
2015-Aug-04 02:33N 39°09' W 075°15'7 6.9
2015-Aug-04 01:33N 39°15' W 075°20'9 9.0
2015-Aug-04 00:34N 39°22' W 075°27'10 9.7
2015-Aug-03 23:33N 39°30' W 075°33'5 5.2
2015-Aug-03 22:34N 39°33' W 075°39'7 6.7
2015-Aug-03 21:33N 39°32' W 075°48'6 5.9
2015-Aug-03 20:33N 39°30' W 075°55'6 6.5
2015-Aug-03 19:33N 39°26' W 076°01'7 6.6
2015-Aug-03 18:33N 39°22' W 076°08'6 6.5
2015-Aug-03 17:33N 39°17' W 076°14'9 7.2
2015-Aug-03 16:21N 39°10' W 076°19'6 7.1
2015-Aug-03 15:29N 39°11' W 076°26'6 6.7
2015-Aug-03 14:33N 39°14' W 076°33'2 1.5
2015-Aug-03 13:33N 39°16' W 076°34'2 1.7
2015-Aug-03 12:33N 39°17' W 076°36'0 0.0
2015-Aug-03 11:33N 39°17' W 076°36'0 0.0
2015-Aug-03 10:33N 39°17' W 076°36'0 0.0
2015-Aug-03 09:33N 39°17' W 076°36'0 0.0
2015-Aug-03 08:33N 39°17' W 076°36'0 0.0
2015-Aug-03 07:34N 39°17' W 076°36'0 0.0
2015-Aug-03 06:33N 39°17' W 076°36'0 0.0
2015-Aug-03 05:33N 39°17' W 076°36'0 0.0
2015-Aug-03 04:33N 39°17' W 076°36'0 0.0
2015-Aug-03 03:33N 39°17' W 076°36'0 0.0
2015-Aug-03 02:33N 39°17' W 076°36'3 2.8
2015-Aug-03 01:30N 39°15' W 076°33'6 6.7
2015-Aug-03 00:33N 39°11' W 076°27'7 6.6
2015-Aug-02 23:33N 39°10' W 076°18'7 6.8
2015-Aug-02 22:33N 39°16' W 076°14'7 7.4
2015-Aug-02 21:33N 39°22' W 076°08'8 8.3
2015-Aug-02 20:33N 39°27' W 075°60'9 8.6
2015-Aug-02 19:34N 39°32' W 075°51'9 8.9
2015-Aug-02 18:34N 39°33' W 075°40'5 5.3
2015-Aug-02 17:33N 39°31' W 075°33'8 7.6
2015-Aug-02 16:33N 39°24' W 075°30'9 9.5
2015-Aug-02 15:33N 39°17' W 075°22'9 9.3
2015-Aug-02 14:34N 39°09' W 075°15'9 9.1
2015-Aug-02 13:33N 39°01' W 075°09'6 6.3
2015-Aug-02 12:33N 38°56' W 075°05'7 6.8
2015-Aug-02 11:28N 38°49' W 075°02'6 6.7
2015-Aug-02 10:34N 38°49' W 074°54'6 6.4
2015-Aug-02 09:33N 38°53' W 074°47'6 6.3
2015-Aug-02 08:33N 38°58' W 074°43'6 6.0
2015-Aug-02 07:33N 39°02' W 074°37'6 6.0
2015-Aug-02 06:29N 39°07' W 074°31'5 5.9
2015-Aug-02 05:33N 39°11' W 074°27'6 5.8
2015-Aug-02 04:34N 39°16' W 074°22'6 5.7
2015-Aug-02 03:32N 39°20' W 074°17'12 5.9
2015-Aug-02 01:26N 39°30' W 074°08'5 6.1
2015-Aug-02 00:32N 39°35' W 074°05'6 6.1
2015-Aug-01 23:33N 39°41' W 074°01'6 6.1
2015-Aug-01 22:33N 39°46' W 073°58'6 6.2
2015-Aug-01 21:33N 39°52' W 073°58'6 5.9
2015-Aug-01 20:33N 39°58' W 073°57'15 6.1
2015-Aug-01 18:08N 40°13' W 073°55'5 6.6
2015-Aug-01 17:21N 40°18' W 073°54'5 6.3
2015-Aug-01 16:32N 40°23' W 073°54'6 6.5
2015-Aug-01 15:33N 40°29' W 073°56'7 6.7
2015-Aug-01 14:34N 40°34' W 074°02'4 3.9
2015-Aug-01 13:33N 40°38' W 074°03'6 6.3
2015-Aug-01 12:33N 40°38' W 074°11'7 6.5
2015-Aug-01 11:33N 40°33' W 074°15'0 0.0
2015-Aug-01 10:33N 40°33' W 074°15'0 0.2
2015-Aug-01 08:31N 40°33' W 074°15'0 0.0
2015-Aug-01 07:34N 40°33' W 074°15'0 0.0
2015-Aug-01 06:31N 40°33' W 074°15'0 0.0
2015-Aug-01 05:28N 40°33' W 074°15'0 0.0
2015-Aug-01 04:33N 40°33' W 074°15'0 0.2
2015-Aug-01 03:33N 40°33' W 074°15'2 2.2
2015-Aug-01 02:33N 40°34' W 074°13'3 1.5
2015-Aug-01 00:34N 40°37' W 074°12'4 3.5
2015-Jul-31 23:32N 40°38' W 074°08'0 0.0
2015-Jul-31 20:28N 40°38' W 074°08'0 0.0
2015-Jul-31 19:21N 40°38' W 074°08'0 0.0
2015-Jul-31 18:32N 40°38' W 074°08'0 0.0
2015-Jul-31 16:31N 40°38' W 074°08'0 0.0
2015-Jul-31 15:32N 40°38' W 074°08'4 3.4
2015-Jul-31 14:19N 40°36' W 074°12'3 4.2
2015-Jul-31 13:34N 40°39' W 074°10'6 6.3
2015-Jul-31 12:34N 40°40' W 074°02'0 0.0
2015-Jul-31 11:34N 40°40' W 074°02'0 0.0
2015-Jul-31 10:34N 40°40' W 074°02'0 0.1
2015-Jul-31 09:34N 40°40' W 074°02'0 0.1
2015-Jul-31 08:33N 40°40' W 074°02'2 2.1
2015-Jul-31 07:34N 40°39' W 074°05'2 2.4
2015-Jul-31 06:34N 40°38' W 074°08'0 0.0
2015-Jul-31 05:33N 40°38' W 074°08'0 0.0
2015-Jul-31 04:34N 40°38' W 074°08'0 0.0
2015-Jul-31 03:34N 40°38' W 074°08'0 0.0
2015-Jul-31 02:34N 40°38' W 074°08'0 0.0
2015-Jul-31 01:33N 40°38' W 074°08'0 0.0
2015-Jul-31 00:34N 40°38' W 074°08'0 0.0
2015-Jul-30 23:34N 40°38' W 074°08'0 0.0
2015-Jul-30 22:34N 40°38' W 074°08'0 0.0
2015-Jul-30 21:34N 40°38' W 074°08'0 0.0
2015-Jul-30 20:34N 40°38' W 074°08'0 0.0
2015-Jul-30 19:33N 40°38' W 074°08'0 0.0
2015-Jul-30 18:33N 40°38' W 074°08'0 0.0
2015-Jul-30 17:34N 40°38' W 074°08'0 0.0
2015-Jul-30 16:34N 40°38' W 074°08'0 0.0
2015-Jul-30 15:34N 40°38' W 074°08'0 0.0
2015-Jul-30 14:34N 40°38' W 074°08'0 0.0
2015-Jul-30 13:34N 40°38' W 074°08'1 0.6
2015-Jul-30 12:33N 40°39' W 074°07'0 0.2
2015-Jul-30 11:34N 40°39' W 074°07'0 0.1
2015-Jul-30 10:30N 40°39' W 074°07'0 0.5
2015-Jul-30 09:33N 40°38' W 074°08'0 0.0
2015-Jul-30 08:34N 40°38' W 074°08'0 0.0
2015-Jul-30 07:34N 40°38' W 074°08'1 1.0
2015-Jul-30 06:32N 40°39' W 074°07'1 1.1
2015-Jul-30 05:33N 40°38' W 074°08'0 0.0
2015-Jul-30 04:34N 40°38' W 074°08'0 0.0
2015-Jul-30 03:34N 40°38' W 074°08'0 0.0
2015-Jul-30 02:34N 40°38' W 074°08'0 0.0
2015-Jul-30 01:34N 40°38' W 074°08'5 5.3
2015-Jul-30 00:34N 40°40' W 074°01'5 5.3
2015-Jul-29 23:33N 40°38' W 074°08'0 0.0
2015-Jul-29 22:33N 40°38' W 074°08'0 0.0
2015-Jul-29 21:34N 40°38' W 074°08'5 5.1
2015-Jul-29 20:31N 40°35' W 074°13'2 1.8
2015-Jul-29 19:12N 40°33' W 074°15'0 0.6
2015-Jul-29 18:31N 40°33' W 074°15'7 6.7
2015-Jul-29 17:34N 40°39' W 074°11'8 8.1
2015-Jul-29 16:34N 40°40' W 074°01'0 0.2
2015-Jul-29 15:34N 40°40' W 074°01'0 0.0
2015-Jul-29 14:34N 40°40' W 074°01'0 0.0
2015-Jul-29 13:34N 40°40' W 074°01'0 0.0
2015-Jul-29 12:34N 40°40' W 074°01'0 0.0
2015-Jul-29 11:34N 40°40' W 074°01'0 0.0
2015-Jul-29 10:34N 40°40' W 074°01'0 0.0
2015-Jul-29 09:34N 40°40' W 074°01'0 0.0
2015-Jul-29 08:34N 40°40' W 074°01'0 0.0
2015-Jul-29 07:33N 40°40' W 074°01'0 0.0
2015-Jul-29 06:34N 40°40' W 074°01'0 0.0
2015-Jul-29 05:34N 40°40' W 074°01'0 0.0
2015-Jul-29 04:34N 40°40' W 074°01'0 0.0
2015-Jul-29 03:34N 40°40' W 074°01'0 0.0
2015-Jul-29 02:34N 40°40' W 074°01'5 5.2
2015-Jul-29 01:32N 40°38' W 074°08'4 3.6
2015-Jul-29 00:33N 40°38' W 074°12'0 0.1
2015-Jul-28 23:12N 40°38' W 074°12'2 3.0
2015-Jul-28 22:33N 40°36' W 074°12'0 0.0
2015-Jul-28 21:31N 40°36' W 074°12'0 0.0
2015-Jul-28 20:33N 40°36' W 074°12'0 0.0
2015-Jul-28 19:31N 40°36' W 074°12'1 1.4
2015-Jul-28 18:33N 40°37' W 074°12'1 0.5
2015-Jul-28 17:19N 40°38' W 074°12'0 0.0
2015-Jul-28 16:33N 40°38' W 074°12'0 0.1
2015-Jul-28 15:34N 40°38' W 074°12'2 2.1
2015-Jul-28 14:33N 40°36' W 074°12'1 0.7
2015-Jul-28 13:33N 40°36' W 074°12'1 1.2
2015-Jul-28 12:33N 40°38' W 074°12'3 1.4
2015-Jul-28 10:06N 40°38' W 074°08'0 0.0
2015-Jul-28 09:32N 40°38' W 074°08'0 0.0
2015-Jul-28 07:14N 40°38' W 074°08'0 0.0
2015-Jul-28 06:33N 40°38' W 074°08'0 0.0
2015-Jul-28 05:30N 40°38' W 074°08'0 0.0
2015-Jul-28 04:32N 40°38' W 074°08'0 0.0
2015-Jul-28 00:30N 40°38' W 074°08'1 1.1
2015-Jul-27 23:34N 40°39' W 074°07'0 0.0
2015-Jul-27 22:33N 40°39' W 074°07'5 5.1
2015-Jul-27 21:31N 40°36' W 074°12'0 0.0
2015-Jul-27 20:33N 40°36' W 074°12'0 0.0
2015-Jul-27 19:32N 40°36' W 074°12'1 1.1
2015-Jul-27 18:34N 40°37' W 074°12'1 0.7
2015-Jul-27 17:34N 40°38' W 074°12'0 0.2
2015-Jul-27 16:33N 40°38' W 074°12'0 0.0
2015-Jul-27 15:33N 40°38' W 074°12'0 0.2
2015-Jul-27 14:28N 40°38' W 074°12'0 0.2
2015-Jul-27 13:33N 40°38' W 074°12'3 0.3
2015-Jul-27 03:29N 40°38' W 074°08'1 0.0
2015-Jul-26 11:32N 40°38' W 074°09'3 2.7
2015-Jul-26 10:32N 40°38' W 074°12'0 0.3
2015-Jul-26 09:33N 40°38' W 074°12'4 3.5
2015-Jul-26 08:33N 40°38' W 074°08'0 0.0
2015-Jul-26 04:11N 40°38' W 074°08'1 1.5
2015-Jul-26 03:34N 40°39' W 074°07'0 0.2
2015-Jul-26 02:34N 40°39' W 074°07'0 0.0
2015-Jul-26 01:34N 40°39' W 074°07'4 4.4
2015-Jul-26 00:34N 40°40' W 074°01'0 0.0
2015-Jul-25 23:34N 40°40' W 074°01'0 0.0
2015-Jul-25 22:33N 40°40' W 074°01'0 0.0
2015-Jul-25 21:33N 40°40' W 074°01'4 3.9
2015-Jul-25 20:34N 40°39' W 074°06'2 1.9
2015-Jul-25 19:33N 40°39' W 074°04'2 2.0
2015-Jul-25 18:34N 40°40' W 074°01'0 0.0
2015-Jul-25 17:34N 40°40' W 074°01'1 1.0
2015-Jul-25 16:33N 40°40' W 074°02'1 1.0
2015-Jul-25 15:34N 40°40' W 074°01'0 0.0
2015-Jul-25 14:34N 40°40' W 074°01'1 1.1
2015-Jul-25 13:34N 40°40' W 074°02'4 3.6
2015-Jul-25 12:22N 40°38' W 074°08'0 0.0
2015-Jul-25 11:24N 40°38' W 074°08'0 0.0
2015-Jul-25 10:29N 40°38' W 074°08'0 0.0
2015-Jul-25 09:33N 40°38' W 074°08'  
Track history (hours):
 
Tides and Currents Weather Stations Pressure Air Temp Water Temp Dewpoint Dewpoint Depression Visibility Wind Speed Wind Dir Waves Ship Positions

Stephen Scott

Owner: H A REINAUER INC, STATEN ISLAND, NY. More information available from US FCC via Universal Licensing System and Coast Guard Vessel Documentation Center.

Last reported at 2015-Aug-04 04:33 UTC. Time now 2015-Aug-04 05:19 UTC.
Position N 38°57' W 075°06'.

Length 30 m; draft 2.5 m.

Type: Towing. MMSI: 366245490.

Date/timePositionNaut miles runAvg speedWind from/ knotsBaromVisibWave heightAir tempDewpointWater temp
2015-Aug-04 04:33N 38°57' W 075°06'9 7.0
2015-Aug-04 03:20N 39°05' W 075°11'5 6.4
2015-Aug-04 02:33N 39°09' W 075°15'7 6.9
2015-Aug-04 01:33N 39°15' W 075°20'9 9.0
2015-Aug-04 00:34N 39°22' W 075°27'10 9.7
2015-Aug-03 23:33N 39°30' W 075°33'5 5.2
2015-Aug-03 22:34N 39°33' W 075°39'7 6.7
2015-Aug-03 21:33N 39°32' W 075°48'6 5.9
2015-Aug-03 20:33N 39°30' W 075°55'6 6.5
2015-Aug-03 19:33N 39°26' W 076°01'7 6.6
2015-Aug-03 18:33N 39°22' W 076°08'6 6.5
2015-Aug-03 17:33N 39°17' W 076°14'9 7.2
2015-Aug-03 16:21N 39°10' W 076°19'6 7.1
2015-Aug-03 15:29N 39°11' W 076°26'6 6.7
2015-Aug-03 14:33N 39°14' W 076°33'2 1.5
2015-Aug-03 13:33N 39°16' W 076°34'2 1.7
2015-Aug-03 12:33N 39°17' W 076°36'0 0.0
2015-Aug-03 11:33N 39°17' W 076°36'0 0.0
2015-Aug-03 10:33N 39°17' W 076°36'0 0.0
2015-Aug-03 09:33N 39°17' W 076°36'0 0.0
2015-Aug-03 08:33N 39°17' W 076°36'0 0.0
2015-Aug-03 07:34N 39°17' W 076°36'0 0.0
2015-Aug-03 06:33N 39°17' W 076°36'0 0.0
2015-Aug-03 05:33N 39°17' W 076°36'0 0.0
2015-Aug-03 04:33N 39°17' W 076°36'0 0.0
2015-Aug-03 03:33N 39°17' W 076°36'0 0.0
2015-Aug-03 02:33N 39°17' W 076°36'3 2.8
2015-Aug-03 01:30N 39°15' W 076°33'6 6.7
2015-Aug-03 00:33N 39°11' W 076°27'7 6.6
2015-Aug-02 23:33N 39°10' W 076°18'7 6.8
2015-Aug-02 22:33N 39°16' W 076°14'7 7.4
2015-Aug-02 21:33N 39°22' W 076°08'8 8.3
2015-Aug-02 20:33N 39°27' W 075°60'9 8.6
2015-Aug-02 19:34N 39°32' W 075°51'9 8.9
2015-Aug-02 18:34N 39°33' W 075°40'5 5.3
2015-Aug-02 17:33N 39°31' W 075°33'8 7.6
2015-Aug-02 16:33N 39°24' W 075°30'9 9.5
2015-Aug-02 15:33N 39°17' W 075°22'9 9.3
2015-Aug-02 14:34N 39°09' W 075°15'9 9.1
2015-Aug-02 13:33N 39°01' W 075°09'6 6.3
2015-Aug-02 12:33N 38°56' W 075°05'7 6.8
2015-Aug-02 11:28N 38°49' W 075°02'6 6.7
2015-Aug-02 10:34N 38°49' W 074°54'6 6.4
2015-Aug-02 09:33N 38°53' W 074°47'6 6.3
2015-Aug-02 08:33N 38°58' W 074°43'6 6.0
2015-Aug-02 07:33N 39°02' W 074°37'6 6.0
2015-Aug-02 06:29N 39°07' W 074°31'5 5.9
2015-Aug-02 05:33N 39°11' W 074°27'6 5.8
2015-Aug-02 04:34N 39°16' W 074°22'6 5.7
2015-Aug-02 03:32N 39°20' W 074°17'12 5.9
2015-Aug-02 01:26N 39°30' W 074°08'5 6.1
2015-Aug-02 00:32N 39°35' W 074°05'6 6.1
2015-Aug-01 23:33N 39°41' W 074°01'6 6.1
2015-Aug-01 22:33N 39°46' W 073°58'6 6.2
2015-Aug-01 21:33N 39°52' W 073°58'6 5.9
2015-Aug-01 20:33N 39°58' W 073°57'15 6.1
2015-Aug-01 18:08N 40°13' W 073°55'5 6.6
2015-Aug-01 17:21N 40°18' W 073°54'5 6.3
2015-Aug-01 16:32N 40°23' W 073°54'6 6.5
2015-Aug-01 15:33N 40°29' W 073°56'7 6.7
2015-Aug-01 14:34N 40°34' W 074°02'4 3.9
2015-Aug-01 13:33N 40°38' W 074°03'6 6.3
2015-Aug-01 12:33N 40°38' W 074°11'7 6.5
2015-Aug-01 11:33N 40°33' W 074°15'0 0.0
2015-Aug-01 10:33N 40°33' W 074°15'0 0.2
2015-Aug-01 08:31N 40°33' W 074°15'0 0.0
2015-Aug-01 07:34N 40°33' W 074°15'0 0.0
2015-Aug-01 06:31N 40°33' W 074°15'0 0.0
2015-Aug-01 05:28N 40°33' W 074°15'0 0.0
2015-Aug-01 04:33N 40°33' W 074°15'0 0.2
2015-Aug-01 03:33N 40°33' W 074°15'2 2.2
2015-Aug-01 02:33N 40°34' W 074°13'3 1.5
2015-Aug-01 00:34N 40°37' W 074°12'4 3.5
2015-Jul-31 23:32N 40°38' W 074°08'0 0.0
2015-Jul-31 20:28N 40°38' W 074°08'0 0.0
2015-Jul-31 19:21N 40°38' W 074°08'0 0.0
2015-Jul-31 18:32N 40°38' W 074°08'0 0.0
2015-Jul-31 16:31N 40°38' W 074°08'0 0.0
2015-Jul-31 15:32N 40°38' W 074°08'4 3.4
2015-Jul-31 14:19N 40°36' W 074°12'3 4.2
2015-Jul-31 13:34N 40°39' W 074°10'6 6.3
2015-Jul-31 12:34N 40°40' W 074°02'0 0.0
2015-Jul-31 11:34N 40°40' W 074°02'0 0.0
2015-Jul-31 10:34N 40°40' W 074°02'0 0.1
2015-Jul-31 09:34N 40°40' W 074°02'0 0.1
2015-Jul-31 08:33N 40°40' W 074°02'2 2.1
2015-Jul-31 07:34N 40°39' W 074°05'2 2.4
2015-Jul-31 06:34N 40°38' W 074°08'0 0.0
2015-Jul-31 05:33N 40°38' W 074°08'0 0.0
2015-Jul-31 04:34N 40°38' W 074°08'0 0.0
2015-Jul-31 03:34N 40°38' W 074°08'0 0.0
2015-Jul-31 02:34N 40°38' W 074°08'0 0.0
2015-Jul-31 01:33N 40°38' W 074°08'0 0.0
2015-Jul-31 00:34N 40°38' W 074°08'0 0.0
2015-Jul-30 23:34N 40°38' W 074°08'0 0.0
2015-Jul-30 22:34N 40°38' W 074°08'0 0.0
2015-Jul-30 21:34N 40°38' W 074°08'0 0.0
2015-Jul-30 20:34N 40°38' W 074°08'0 0.0
2015-Jul-30 19:33N 40°38' W 074°08'0 0.0
2015-Jul-30 18:33N 40°38' W 074°08'0 0.0
2015-Jul-30 17:34N 40°38' W 074°08'0 0.0
2015-Jul-30 16:34N 40°38' W 074°08'0 0.0
2015-Jul-30 15:34N 40°38' W 074°08'0 0.0
2015-Jul-30 14:34N 40°38' W 074°08'0 0.0
2015-Jul-30 13:34N 40°38' W 074°08'1 0.6
2015-Jul-30 12:33N 40°39' W 074°07'0 0.2
2015-Jul-30 11:34N 40°39' W 074°07'0 0.1
2015-Jul-30 10:30N 40°39' W 074°07'0 0.5
2015-Jul-30 09:33N 40°38' W 074°08'0 0.0
2015-Jul-30 08:34N 40°38' W 074°08'0 0.0
2015-Jul-30 07:34N 40°38' W 074°08'1 1.0
2015-Jul-30 06:32N 40°39' W 074°07'1 1.1
2015-Jul-30 05:33N 40°38' W 074°08'0 0.0
2015-Jul-30 04:34N 40°38' W 074°08'0 0.0
2015-Jul-30 03:34N 40°38' W 074°08'0 0.0
2015-Jul-30 02:34N 40°38' W 074°08'0 0.0
2015-Jul-30 01:34N 40°38' W 074°08'5 5.3
2015-Jul-30 00:34N 40°40' W 074°01'5 5.3
2015-Jul-29 23:33N 40°38' W 074°08'0 0.0
2015-Jul-29 22:33N 40°38' W 074°08'0 0.0
2015-Jul-29 21:34N 40°38' W 074°08'5 5.1
2015-Jul-29 20:31N 40°35' W 074°13'2 1.8
2015-Jul-29 19:12N 40°33' W 074°15'0 0.6
2015-Jul-29 18:31N 40°33' W 074°15'7 6.7
2015-Jul-29 17:34N 40°39' W 074°11'8 8.1
2015-Jul-29 16:34N 40°40' W 074°01'0 0.2
2015-Jul-29 15:34N 40°40' W 074°01'0 0.0
2015-Jul-29 14:34N 40°40' W 074°01'0 0.0
2015-Jul-29 13:34N 40°40' W 074°01'0 0.0
2015-Jul-29 12:34N 40°40' W 074°01'0 0.0
2015-Jul-29 11:34N 40°40' W 074°01'0 0.0
2015-Jul-29 10:34N 40°40' W 074°01'0 0.0
2015-Jul-29 09:34N 40°40' W 074°01'0 0.0
2015-Jul-29 08:34N 40°40' W 074°01'0 0.0
2015-Jul-29 07:33N 40°40' W 074°01'0 0.0
2015-Jul-29 06:34N 40°40' W 074°01'0 0.0
2015-Jul-29 05:34N 40°40' W 074°01'0 0.0
2015-Jul-29 04:34N 40°40' W 074°01'0 0.0
2015-Jul-29 03:34N 40°40' W 074°01'0 0.0
2015-Jul-29 02:34N 40°40' W 074°01'5 5.2
2015-Jul-29 01:32N 40°38' W 074°08'4 3.6
2015-Jul-29 00:33N 40°38' W 074°12'0 0.1
2015-Jul-28 23:12N 40°38' W 074°12'2 3.0
2015-Jul-28 22:33N 40°36' W 074°12'0 0.0
2015-Jul-28 21:31N 40°36' W 074°12'0 0.0
2015-Jul-28 20:33N 40°36' W 074°12'0 0.0
2015-Jul-28 19:31N 40°36' W 074°12'1 1.4
2015-Jul-28 18:33N 40°37' W 074°12'1 0.5
2015-Jul-28 17:19N 40°38' W 074°12'0 0.0
2015-Jul-28 16:33N 40°38' W 074°12'0 0.1
2015-Jul-28 15:34N 40°38' W 074°12'2 2.1
2015-Jul-28 14:33N 40°36' W 074°12'1 0.7
2015-Jul-28 13:33N 40°36' W 074°12'1 1.2
2015-Jul-28 12:33N 40°38' W 074°12'3 1.4
2015-Jul-28 10:06N 40°38' W 074°08'0 0.0
2015-Jul-28 09:32N 40°38' W 074°08'0 0.0
2015-Jul-28 07:14N 40°38' W 074°08'0 0.0
2015-Jul-28 06:33N 40°38' W 074°08'0 0.0
2015-Jul-28 05:30N 40°38' W 074°08'0 0.0
2015-Jul-28 04:32N 40°38' W 074°08'0 0.0
2015-Jul-28 00:30N 40°38' W 074°08'1 1.1
2015-Jul-27 23:34N 40°39' W 074°07'0 0.0
2015-Jul-27 22:33N 40°39' W 074°07'5 5.1
2015-Jul-27 21:31N 40°36' W 074°12'0 0.0
2015-Jul-27 20:33N 40°36' W 074°12'0 0.0
2015-Jul-27 19:32N 40°36' W 074°12'1 1.1
2015-Jul-27 18:34N 40°37' W 074°12'1 0.7
2015-Jul-27 17:34N 40°38' W 074°12'0 0.2
2015-Jul-27 16:33N 40°38' W 074°12'0 0.0
2015-Jul-27 15:33N 40°38' W 074°12'0 0.2
2015-Jul-27 14:28N 40°38' W 074°12'0 0.2
2015-Jul-27 13:33N 40°38' W 074°12'3 0.3
2015-Jul-27 03:29N 40°38' W 074°08'1 0.0
2015-Jul-26 11:32N 40°38' W 074°09'3 2.7
2015-Jul-26 10:32N 40°38' W 074°12'0 0.3
2015-Jul-26 09:33N 40°38' W 074°12'4 3.5
2015-Jul-26 08:33N 40°38' W 074°08'0 0.0
2015-Jul-26 04:11N 40°38' W 074°08'1 1.5
2015-Jul-26 03:34N 40°39' W 074°07'0 0.2
2015-Jul-26 02:34N 40°39' W 074°07'0 0.0
2015-Jul-26 01:34N 40°39' W 074°07'4 4.4
2015-Jul-26 00:34N 40°40' W 074°01'0 0.0
2015-Jul-25 23:34N 40°40' W 074°01'0 0.0
2015-Jul-25 22:33N 40°40' W 074°01'0 0.0
2015-Jul-25 21:33N 40°40' W 074°01'4 3.9
2015-Jul-25 20:34N 40°39' W 074°06'2 1.9
2015-Jul-25 19:33N 40°39' W 074°04'2 2.0
2015-Jul-25 18:34N 40°40' W 074°01'0 0.0
2015-Jul-25 17:34N 40°40' W 074°01'1 1.0
2015-Jul-25 16:33N 40°40' W 074°02'1 1.0
2015-Jul-25 15:34N 40°40' W 074°01'0 0.0
2015-Jul-25 14:34N 40°40' W 074°01'1 1.1
2015-Jul-25 13:34N 40°40' W 074°02'4 3.6
2015-Jul-25 12:22N 40°38' W 074°08'0 0.0
2015-Jul-25 11:24N 40°38' W 074°08'0 0.0
2015-Jul-25 10:29N 40°38' W 074°08'0 0.0
2015-Jul-25 09:33N 40°38' W 074°08'  

Dump ship's entire track history